Time;durP1;ratioP1;P1;durP2;ratioP2;P2;SDS_P1;SDS_P2;PMS_P1;PMS_P2;Temp;Humidity;BMP_temperature;BMP_pressure;BME280_temperature;BME280_humidity;BME280_pressure;Samples;Min_cycle;Max_cycle;Signal;HPM_P1;HPM_P2
2023/01/20 00:00:17;;;;;;;3.78;1.95;;;;;;;;;;4399130;32;66766;-63
2023/01/20 00:03:04;;;;;;;2.90;1.80;;;;;;;;;;4399400;32;59937;-62
2023/01/20 00:05:51;;;;;;;2.83;1.60;;;;;;;;;;4399190;32;70627;-62
2023/01/20 00:08:38;;;;;;;2.28;1.80;;;;;;;;;;4375827;32;68882;-62
2023/01/20 00:11:25;;;;;;;3.00;1.70;;;;;;;;;;4397914;32;66765;-62
2023/01/20 00:14:12;;;;;;;3.85;2.25;;;;;;;;;;4376322;32;70388;-61
2023/01/20 00:16:59;;;;;;;2.92;1.60;;;;;;;;;;4397636;32;64819;-62
2023/01/20 00:19:46;;;;;;;3.15;1.90;;;;;;;;;;4386174;32;67762;-63
2023/01/20 00:22:33;;;;;;;3.78;1.85;;;;;;;;;;4375720;32;59831;-64
2023/01/20 00:25:19;;;;;;;4.55;1.90;;;;;;;;;;4375321;32;71064;-63
2023/01/20 00:28:06;;;;;;;4.80;1.90;;;;;;;;;;4397704;32;64804;-63
2023/01/20 00:30:52;;;;;;;3.83;1.90;;;;;;;;;;4397511;32;66579;-62
2023/01/20 00:33:39;;;;;;;3.62;1.80;;;;;;;;;;4398535;32;59676;-63
2023/01/20 00:36:28;;;;;;;3.70;2.00;;;;;;;;;;4397372;32;69629;-63
2023/01/20 00:39:14;;;;;;;2.03;1.58;;;;;;;;;;4397475;32;69158;-62
2023/01/20 00:42:01;;;;;;;2.85;1.80;;;;;;;;;;4386624;32;67327;-63
2023/01/20 00:44:48;;;;;;;3.42;1.87;;;;;;;;;;4398502;32;72096;-63
2023/01/20 00:47:34;;;;;;;3.40;2.05;;;;;;;;;;4386850;32;66176;-63
2023/01/20 00:50:21;;;;;;;2.92;1.83;;;;;;;;;;4386322;32;68302;-64
2023/01/20 00:53:08;;;;;;;4.40;1.83;;;;;;;;;;4397224;32;67320;-63
2023/01/20 00:55:54;;;;;;;3.78;2.05;;;;;;;;;;4374977;32;72165;-63
2023/01/20 00:58:45;;;;;;;3.42;1.90;;;;;;;;;;4397171;32;66129;-62
2023/01/20 01:01:31;;;;;;;4.25;1.77;;;;;;;;;;4385986;32;68213;-62
2023/01/20 01:04:17;;;;;;;2.75;1.80;;;;;;;;;;4375222;32;60718;-63
2023/01/20 01:07:04;;;;;;;4.57;2.05;;;;;;;;;;4398324;32;70426;-62
2023/01/20 01:09:51;;;;;;;;;;;;;;;;;;4397171;32;68391;-62
2023/01/20 01:12:38;;;;;;;2.95;1.65;;;;;;;;;;4397274;32;66884;-62
2023/01/20 01:15:25;;;;;;;2.78;1.90;;;;;;;;;;4386339;32;71821;-62
2023/01/20 01:18:11;;;;;;;3.53;1.92;;;;;;;;;;4386458;32;70666;-62
2023/01/20 01:20:58;;;;;;;2.37;1.62;;;;;;;;;;4376260;32;68516;-62
2023/01/20 01:23:46;;;;;;;3.37;1.70;;;;;;;;;;4398625;32;66987;-62
2023/01/20 01:26:33;;;;;;;2.85;1.80;;;;;;;;;;4364813;32;71301;-63
2023/01/20 01:29:19;;;;;;;3.85;2.25;;;;;;;;;;4375777;32;64856;-63
2023/01/20 01:32:06;;;;;;;3.60;2.25;;;;;;;;;;4398065;32;68217;-62
2023/01/20 01:34:53;;;;;;;;;;;;;;;;;;4389375;32;60645;-62
2023/01/20 01:37:39;;;;;;;5.12;2.22;;;;;;;;;;4399641;32;70261;-63
2023/01/20 01:40:26;;;;;;;4.22;2.12;;;;;;;;;;4386172;32;68758;-63
2023/01/20 01:43:23;;;;;;;3.12;1.92;;;;;;;;;;4375532;32;67471;-62
2023/01/20 01:46:09;;;;;;;3.97;1.90;;;;;;;;;;4397088;32;60067;-63
2023/01/20 01:48:57;;;;;;;4.35;2.00;;;;;;;;;;4374819;32;71258;-62
2023/01/20 01:51:52;;;;;;;2.97;1.92;;;;;;;;;;4385465;32;69743;-62
2023/01/20 01:54:42;;;;;;;3.42;2.10;;;;;;;;;;4396626;32;67545;-62
2023/01/20 01:57:30;;;;;;;3.05;2.08;;;;;;;;;;4396477;32;70391;-63
2023/01/20 02:00:17;;;;;;;3.65;2.00;;;;;;;;;;4385879;32;65919;-63
2023/01/20 02:03:05;;;;;;;2.60;1.70;;;;;;;;;;4385849;32;66692;-62
2023/01/20 02:05:52;;;;;;;3.25;2.22;;;;;;;;;;4397029;32;60984;-62
2023/01/20 02:08:39;;;;;;;2.37;1.75;;;;;;;;;;4385328;32;72378;-62
2023/01/20 02:11:26;;;;;;;4.30;1.90;;;;;;;;;;4396617;32;65817;-63
2023/01/20 02:14:16;;;;;;;2.85;1.77;;;;;;;;;;4375184;32;68002;-62
2023/01/20 02:17:26;;;;;;;2.65;2.03;;;;;;;;;;4396621;32;59155;-62
2023/01/20 02:20:21;;;;;;;3.03;1.70;;;;;;;;;;4385425;32;71077;-63
2023/01/20 02:23:20;;;;;;;3.83;2.22;;;;;;;;;;4398890;32;69303;-62
2023/01/20 02:26:18;;;;;;;3.47;1.92;;;;;;;;;;4400119;32;67819;-62
2023/01/20 02:29:51;;;;;;;3.75;1.83;;;;;;;;;;4399160;32;70829;-62
2023/01/20 02:33:00;;;;;;;3.60;2.00;;;;;;;;;;4398236;32;71616;-62
2023/01/20 02:35:49;;;;;;;2.97;1.70;;;;;;;;;;4398725;32;68433;-62
2023/01/20 02:38:51;;;;;;;3.97;2.00;;;;;;;;;;4387316;32;66799;-62
2023/01/20 02:41:41;;;;;;;4.20;1.85;;;;;;;;;;4377260;32;71312;-62
2023/01/20 02:44:55;;;;;;;3.30;1.77;;;;;;;;;;4388069;32;65652;-62
2023/01/20 02:48:11;;;;;;;2.80;2.00;;;;;;;;;;4388182;32;67824;-62
2023/01/20 02:51:02;;;;;;;2.78;1.70;;;;;;;;;;4398834;32;59999;-62
2023/01/20 02:54:03;;;;;;;4.20;2.20;;;;;;;;;;4398763;32;70046;-62
2023/01/20 02:56:51;;;;;;;3.05;1.85;;;;;;;;;;4387054;32;69807;-62
2023/01/20 02:59:41;;;;;;;4.07;2.00;;;;;;;;;;4398583;32;66959;-62
2023/01/20 03:02:28;;;;;;;3.55;2.10;;;;;;;;;;4388228;32;60058;-63
2023/01/20 03:05:32;;;;;;;3.30;2.00;;;;;;;;;;4376404;32;70234;-62
2023/01/20 03:08:20;;;;;;;4.80;2.12;;;;;;;;;;4387890;32;69252;-61
2023/01/20 03:11:08;;;;;;;3.33;1.80;;;;;;;;;;4387685;32;67071;-62
2023/01/20 03:13:59;;;;;;;3.10;1.98;;;;;;;;;;4398436;32;71813;-63
2023/01/20 03:16:47;;;;;;;4.43;2.30;;;;;;;;;;4376330;32;67059;-63
2023/01/20 03:19:35;;;;;;;6.90;2.62;;;;;;;;;;4387806;32;67960;-63
2023/01/20 03:22:21;;;;;;;3.58;1.92;;;;;;;;;;4376287;32;60717;-62
2023/01/20 03:25:09;;;;;;;5.00;2.37;;;;;;;;;;4399555;32;71590;-63
2023/01/20 03:27:56;;;;;;;4.70;2.00;;;;;;;;;;4387619;32;65681;-64
2023/01/20 03:30:42;;;;;;;3.53;1.80;;;;;;;;;;4397470;32;69761;-63
2023/01/20 03:33:29;;;;;;;6.32;2.30;;;;;;;;;;4398196;32;60232;-63
2023/01/20 03:36:16;;;;;;;3.95;2.05;;;;;;;;;;4397960;32;69793;-63
2023/01/20 03:39:02;;;;;;;;;;;;;;;;;;4386871;32;68707;-62
2023/01/20 03:42:05;;;;;;;0.52;0.50;;;;;;;;;;4398249;32;67238;-63
2023/01/20 03:45:04;;;;;;;0.30;0.13;;;;;;;;;;4387019;32;71370;-62
2023/01/20 03:48:18;;;;;;;1.27;0.65;;;;;;;;;;4399387;32;66194;-63
2023/01/20 03:51:37;;;;;;;8.20;2.80;;;;;;;;;;4387201;32;69256;-62
2023/01/20 03:54:26;;;;;;;4.28;1.95;;;;;;;;;;4397470;32;68104;-63
2023/01/20 03:57:31;;;;;;;5.97;2.47;;;;;;;;;;4397736;32;72202;-62
2023/01/20 04:00:20;;;;;;;1.00;0.40;;;;;;;;;;4397903;32;65660;-63
2023/01/20 04:03:19;;;;;;;0.80;0.65;;;;;;;;;;4399125;32;68023;-64
2023/01/20 04:06:07;;;;;;;3.53;1.98;;;;;;;;;;4399137;32;60412;-63
2023/01/20 04:09:00;;;;;;;3.62;2.40;;;;;;;;;;4376600;32;70476;-63
2023/01/20 04:11:47;;;;;;;4.05;2.22;;;;;;;;;;4387226;32;69305;-64
2023/01/20 04:14:35;;;;;;;3.70;1.85;;;;;;;;;;4386348;32;67263;-62
2023/01/20 04:17:25;;;;;;;3.70;2.40;;;;;;;;;;4376944;32;60215;-63
2023/01/20 04:20:13;;;;;;;3.05;2.05;;;;;;;;;;4386838;32;69198;-63
2023/01/20 04:23:00;;;;;;;3.53;1.92;;;;;;;;;;4376175;32;69839;-62
2023/01/20 04:25:46;;;;;;;;;;;;;;;;;;4387387;32;67377;-64
2023/01/20 04:28:33;;;;;;;3.17;1.80;;;;;;;;;;4399084;32;71645;-64
2023/01/20 04:31:19;;;;;;;;;;;;;;;;;;4398001;32;64967;-63
2023/01/20 04:34:05;;;;;;;2.55;2.12;;;;;;;;;;4397346;32;68127;-63
2023/01/20 04:36:52;;;;;;;4.37;2.03;;;;;;;;;;4398864;32;59226;-63
2023/01/20 04:39:38;;;;;;;4.45;2.35;;;;;;;;;;4386345;32;70508;-63
2023/01/20 04:42:25;;;;;;;4.00;2.28;;;;;;;;;;4375891;32;66244;-62
2023/01/20 04:45:15;;;;;;;2.58;1.62;;;;;;;;;;4376222;32;67759;-62
2023/01/20 04:48:06;;;;;;;3.62;2.03;;;;;;;;;;4385934;32;60601;-62
2023/01/20 04:50:52;;;;;;;3.10;2.10;;;;;;;;;;4396533;32;71041;-63
2023/01/20 04:53:38;;;;;;;;;;;;;;;;;;4398819;32;69297;-62
2023/01/20 04:56:25;;;;;;;3.97;2.00;;;;;;;;;;4375259;32;66733;-62
2023/01/20 04:59:12;;;;;;;2.75;1.67;;;;;;;;;;4386282;32;71617;-62
2023/01/20 05:01:59;;;;;;;4.55;2.60;;;;;;;;;;4386441;32;66512;-62
2023/01/20 05:04:45;;;;;;;3.85;2.22;;;;;;;;;;4387359;32;68379;-63
2023/01/20 05:07:32;;;;;;;4.68;2.15;;;;;;;;;;4375726;32;67168;-62
2023/01/20 05:10:19;;;;;;;4.78;2.47;;;;;;;;;;4386053;32;72363;-64
2023/01/20 05:13:07;;;;;;;5.87;2.47;;;;;;;;;;4375643;32;64815;-63
2023/01/20 05:15:54;;;;;;;4.07;2.30;;;;;;;;;;4385506;32;68212;-63
2023/01/20 05:18:41;;;;;;;4.75;2.40;;;;;;;;;;4375890;32;60123;-63
2023/01/20 05:21:27;;;;;;;5.20;2.80;;;;;;;;;;4386254;32;69634;-64
2023/01/20 05:24:14;;;;;;;3.62;2.12;;;;;;;;;;4396943;32;68503;-62
2023/01/20 05:27:01;;;;;;;4.47;2.62;;;;;;;;;;4396866;32;67393;-62
2023/01/20 05:29:48;;;;;;;4.70;2.47;;;;;;;;;;4375960;32;59173;-62
2023/01/20 05:32:35;;;;;;;5.00;2.22;;;;;;;;;;4375026;32;70101;-64
2023/01/20 05:35:21;;;;;;;3.37;2.40;;;;;;;;;;4367609;32;68198;-64
2023/01/20 05:38:08;;;;;;;4.53;2.40;;;;;;;;;;4367866;32;67045;-64
2023/01/20 05:41:02;;;;;;;4.75;2.40;;;;;;;;;;4355486;32;72246;-63
2023/01/20 05:43:51;;;;;;;4.90;2.45;;;;;;;;;;4355883;32;66221;-62
2023/01/20 05:46:37;;;;;;;3.83;1.98;;;;;;;;;;4355431;32;67428;-62
2023/01/20 05:49:24;;;;;;;2.90;1.90;;;;;;;;;;4366283;32;60174;-63
2023/01/20 05:52:11;;;;;;;2.50;2.12;;;;;;;;;;4345232;32;70212;-63
2023/01/20 05:54:57;;;;;;;3.78;2.12;;;;;;;;;;4366686;32;64879;-63
2023/01/20 05:57:44;;;;;;;;;;;;;;;;;;4358864;32;68144;-64
2023/01/20 06:00:31;;;;;;;3.33;1.98;;;;;;;;;;4369399;32;59944;-64
2023/01/20 06:03:18;;;;;;;2.70;1.67;;;;;;;;;;4347194;32;71920;-63
2023/01/20 06:06:06;;;;;;;3.05;1.90;;;;;;;;;;4358375;32;68419;-64
2023/01/20 06:08:53;;;;;;;5.45;2.10;;;;;;;;;;4370579;32;67665;-64
2023/01/20 06:11:40;;;;;;;3.62;1.75;;;;;;;;;;4360891;32;70841;-64
2023/01/20 06:14:27;;;;;;;4.03;2.58;;;;;;;;;;4350507;32;65057;-62
2023/01/20 06:17:14;;;;;;;2.97;2.10;;;;;;;;;;4360950;32;67162;-63
2023/01/20 06:20:00;;;;;;;4.40;2.45;;;;;;;;;;4371533;32;67676;-64
2023/01/20 06:22:47;;;;;;;4.45;2.00;;;;;;;;;;4369856;32;71898;-63
2023/01/20 06:25:34;;;;;;;4.32;2.20;;;;;;;;;;4369503;32;65836;-62
2023/01/20 06:28:20;;;;;;;3.53;2.50;;;;;;;;;;4368566;32;67895;-62
2023/01/20 06:31:13;;;;;;;4.10;2.35;;;;;;;;;;4358017;32;59252;-62
2023/01/20 06:34:00;;;;;;;4.05;2.10;;;;;;;;;;4372957;32;69312;-62
2023/01/20 06:36:46;;;;;;;4.68;2.20;;;;;;;;;;4398861;32;69552;-63
2023/01/20 06:39:33;;;;;;;4.97;2.53;;;;;;;;;;4387484;32;67456;-62
2023/01/20 06:42:20;;;;;;;4.35;2.28;;;;;;;;;;4398862;32;71811;-62
2023/01/20 06:45:07;;;;;;;3.03;1.85;;;;;;;;;;4377359;32;69156;-62
2023/01/20 06:47:54;;;;;;;3.03;2.10;;;;;;;;;;4399494;32;68743;-62
2023/01/20 06:50:40;;;;;;;4.18;2.05;;;;;;;;;;4387079;32;68264;-62
2023/01/20 06:53:27;;;;;;;3.62;1.87;;;;;;;;;;4387402;32;72719;-61
2023/01/20 06:56:14;;;;;;;;;;;;;;;;;;4377496;32;65075;-61
2023/01/20 06:59:01;;;;;;;3.42;2.00;;;;;;;;;;4387463;32;66887;-61
2023/01/20 07:01:47;;;;;;;;;;;;;;;;;;4398779;32;59701;-61
2023/01/20 07:04:34;;;;;;;3.83;2.00;;;;;;;;;;4377023;32;69498;-61
2023/01/20 07:07:21;;;;;;;3.85;1.98;;;;;;;;;;4389127;32;69289;-62
2023/01/20 07:10:09;;;;;;;3.70;2.15;;;;;;;;;;4389040;32;67840;-62
2023/01/20 07:12:56;;;;;;;2.60;1.77;;;;;;;;;;4377216;32;60204;-62
2023/01/20 07:15:44;;;;;;;4.87;1.87;;;;;;;;;;4387239;32;69641;-62
2023/01/20 07:18:31;;;;;;;3.87;2.08;;;;;;;;;;4376168;32;68624;-62
2023/01/20 07:21:18;;;;;;;3.78;1.90;;;;;;;;;;4399645;32;67808;-62
2023/01/20 07:24:04;;;;;;;;;;;;;;;;;;4376378;32;69738;-62
2023/01/20 07:26:53;;;;;;;3.47;1.85;;;;;;;;;;4387412;32;65661;-62
2023/01/20 07:29:40;;;;;;;3.47;2.00;;;;;;;;;;4397877;32;68075;-62
2023/01/20 07:32:29;;;;;;;2.85;1.77;;;;;;;;;;4387439;32;66588;-61
2023/01/20 07:35:16;;;;;;;3.25;2.20;;;;;;;;;;4398141;32;70742;-61
2023/01/20 07:38:03;;;;;;;3.70;2.00;;;;;;;;;;4398043;32;65813;-62
2023/01/20 07:40:50;;;;;;;;;;;;;;;;;;4398335;32;67023;-61
2023/01/20 07:43:36;;;;;;;3.47;1.87;;;;;;;;;;4398561;32;58734;-62
2023/01/20 07:46:24;;;;;;;2.85;1.80;;;;;;;;;;4376720;32;70413;-61
2023/01/20 07:49:12;;;;;;;3.20;1.70;;;;;;;;;;4398037;32;69355;-62
2023/01/20 07:51:58;;;;;;;3.83;1.80;;;;;;;;;;4375921;32;68390;-61
2023/01/20 07:54:45;;;;;;;2.12;1.45;;;;;;;;;;4398130;32;72009;-61
2023/01/20 07:57:32;;;;;;;2.80;1.80;;;;;;;;;;4398880;32;70574;-62
2023/01/20 08:00:19;;;;;;;2.78;1.50;;;;;;;;;;4376018;32;70188;-63
2023/01/20 08:03:06;;;;;;;1.80;1.30;;;;;;;;;;4398064;32;67913;-62
2023/01/20 08:05:53;;;;;;;;;;;;;;;;;;4398519;32;71003;-61
2023/01/20 08:08:40;;;;;;;1.83;1.40;;;;;;;;;;4387617;32;65225;-62
2023/01/20 08:11:26;;;;;;;2.17;1.17;;;;;;;;;;4399235;32;67932;-62
2023/01/20 08:14:13;;;;;;;2.70;1.27;;;;;;;;;;4365470;32;60927;-62
2023/01/20 08:17:00;;;;;;;4.05;1.70;;;;;;;;;;4397481;32;70639;-62
2023/01/20 08:19:47;;;;;;;3.40;1.30;;;;;;;;;;4386115;32;70511;-62
2023/01/20 08:22:34;;;;;;;2.95;1.23;;;;;;;;;;4375391;32;68529;-62
2023/01/20 08:25:21;;;;;;;2.22;1.27;;;;;;;;;;4397238;32;59776;-62
2023/01/20 08:28:08;;;;;;;1.62;1.25;;;;;;;;;;4375914;32;70608;-62
2023/01/20 08:31:09;;;;;;;1.58;1.12;;;;;;;;;;4364810;32;71359;-61
2023/01/20 08:33:56;;;;;;;2.25;1.42;;;;;;;;;;4375039;32;68232;-62
2023/01/20 08:36:42;;;;;;;1.20;1.08;;;;;;;;;;4375583;32;71854;-62
2023/01/20 08:39:29;;;;;;;2.60;1.15;;;;;;;;;;4376008;32;64761;-61
2023/01/20 08:42:16;;;;;;;2.20;1.20;;;;;;;;;;4385915;32;66976;-61
2023/01/20 08:45:03;;;;;;;2.10;1.27;;;;;;;;;;4375405;32;61071;-61
2023/01/20 08:47:50;;;;;;;3.00;1.37;;;;;;;;;;4386532;32;70992;-61
2023/01/20 08:50:37;;;;;;;2.05;1.30;;;;;;;;;;4386563;32;66162;-61
2023/01/20 08:53:24;;;;;;;3.22;1.95;;;;;;;;;;4375910;32;67079;-62
2023/01/20 08:56:12;;;;;;;2.08;1.60;;;;;;;;;;4386608;32;60074;-61
2023/01/20 08:58:59;;;;;;;1.73;1.10;;;;;;;;;;4396940;32;70388;-63
2023/01/20 09:01:46;;;;;;;2.37;1.48;;;;;;;;;;4375778;32;68184;-63
2023/01/20 09:04:36;;;;;;;1.83;1.23;;;;;;;;;;4375735;32;67690;-62
2023/01/20 09:07:22;;;;;;;3.22;1.67;;;;;;;;;;4386323;32;71953;-62
2023/01/20 09:10:10;;;;;;;1.62;1.27;;;;;;;;;;4386640;32;65984;-62
2023/01/20 09:12:56;;;;;;;3.22;1.35;;;;;;;;;;4385821;32;69075;-62
2023/01/20 09:15:50;;;;;;;2.40;1.50;;;;;;;;;;4386460;32;67644;-64
2023/01/20 09:18:36;;;;;;;2.12;1.08;;;;;;;;;;4385861;32;71585;-62
2023/01/20 09:21:22;;;;;;;2.03;1.60;;;;;;;;;;4397137;32;66192;-62
2023/01/20 09:24:09;;;;;;;;;;;;;;;;;;4386231;32;68426;-63
2023/01/20 09:26:56;;;;;;;3.15;1.73;;;;;;;;;;4386553;32;60044;-64
2023/01/20 09:29:43;;;;;;;4.40;2.50;;;;;;;;;;4396613;32;70386;-63
2023/01/20 09:32:31;;;;;;;;;;;;;;;;;;4398537;32;69142;-62
2023/01/20 09:35:17;;;;;;;3.65;2.10;;;;;;;;;;4375763;32;66978;-62
2023/01/20 09:44:55;;;;;;;3.30;1.67;;;;;;;;;;4397182;32;69461;-62
2023/01/20 09:47:43;;;;;;;3.15;2.05;;;;;;;;;;4397936;32;66961;-63
2023/01/20 09:53:55;;;;;;;3.55;2.30;;;;;;;;;;4398197;32;65959;-61
2023/01/20 09:56:47;;;;;;;3.72;2.30;;;;;;;;;;4375386;32;68033;-62
2023/01/20 09:59:40;;;;;;;4.25;2.55;;;;;;;;;;4386324;32;60096;-62
2023/01/20 10:02:30;;;;;;;3.53;2.20;;;;;;;;;;4385713;32;71856;-63
2023/01/20 10:05:25;;;;;;;3.47;2.10;;;;;;;;;;4396452;32;65027;-63
2023/01/20 10:08:34;;;;;;;3.50;2.12;;;;;;;;;;4375164;32;67994;-62
2023/01/20 10:11:21;;;;;;;3.03;2.17;;;;;;;;;;4385997;32;59031;-63
2023/01/20 10:14:27;;;;;;;3.90;2.20;;;;;;;;;;4396530;32;69631;-62
2023/01/20 10:17:17;;;;;;;4.25;2.42;;;;;;;;;;4385013;32;69313;-63
2023/01/20 10:20:20;;;;;;;4.25;2.22;;;;;;;;;;4396316;32;67598;-62
2023/01/20 10:23:28;;;;;;;3.05;2.05;;;;;;;;;;4374263;32;72377;-64
2023/01/20 10:26:21;;;;;;;3.80;2.17;;;;;;;;;;4396741;32;65872;-62
2023/01/20 10:29:17;;;;;;;3.85;2.50;;;;;;;;;;4396291;32;68468;-62
2023/01/20 10:32:11;;;;;;;5.20;2.67;;;;;;;;;;4385691;32;66652;-62
2023/01/20 10:35:01;;;;;;;7.32;2.58;;;;;;;;;;4384690;32;72334;-63
2023/01/20 10:37:47;;;;;;;5.50;2.47;;;;;;;;;;4385451;32;64923;-64
2023/01/20 10:40:42;;;;;;;4.00;2.28;;;;;;;;;;4396208;32;67071;-63
2023/01/20 10:43:29;;;;;;;4.00;2.50;;;;;;;;;;4388293;32;59096;-63
2023/01/20 10:46:30;;;;;;;5.55;2.60;;;;;;;;;;4387963;32;70507;-64
2023/01/20 10:49:24;;;;;;;4.55;2.47;;;;;;;;;;4387625;32;68218;-62
2023/01/20 10:52:17;;;;;;;2.95;2.33;;;;;;;;;;4399889;32;67741;-63
2023/01/20 10:55:21;;;;;;;4.40;2.20;;;;;;;;;;4399148;32;60194;-62
2023/01/20 10:58:19;;;;;;;5.00;2.33;;;;;;;;;;4399632;32;69960;-63
2023/01/20 11:01:11;;;;;;;4.12;2.33;;;;;;;;;;4398376;32;69512;-62
2023/01/20 11:03:58;;;;;;;4.78;2.45;;;;;;;;;;4388144;32;66900;-62
2023/01/20 11:06:46;;;;;;;;;;;;;;;;;;4399255;32;71662;-62
2023/01/20 11:09:36;;;;;;;3.75;2.30;;;;;;;;;;4400785;32;66499;-62
2023/01/20 11:12:25;;;;;;;3.65;2.33;;;;;;;;;;4398668;32;68127;-62
2023/01/20 11:15:46;;;;;;;4.55;2.08;;;;;;;;;;4398724;32;60342;-64
2023/01/20 11:18:33;;;;;;;4.22;2.45;;;;;;;;;;4387539;32;69548;-63
2023/01/20 11:21:23;;;;;;;4.35;2.35;;;;;;;;;;4387029;32;67131;-62
2023/01/20 11:24:39;;;;;;;4.70;2.35;;;;;;;;;;4400210;32;67730;-62
2023/01/20 11:27:41;;;;;;;5.00;2.75;;;;;;;;;;4377268;32;59111;-63
2023/01/20 11:30:32;;;;;;;3.60;2.30;;;;;;;;;;4399318;32;70010;-62
2023/01/20 11:33:25;;;;;;;4.43;2.42;;;;;;;;;;4387229;32;68287;-63
2023/01/20 11:36:18;;;;;;;4.55;2.40;;;;;;;;;;4386963;32;67147;-64
2023/01/20 11:39:21;;;;;;;3.78;2.62;;;;;;;;;;4399251;32;71165;-63
2023/01/20 11:42:19;;;;;;;4.95;2.70;;;;;;;;;;4387469;32;66092;-63
2023/01/20 11:45:35;;;;;;;4.57;2.80;;;;;;;;;;4386789;32;67332;-62
2023/01/20 11:48:22;;;;;;;5.90;2.80;;;;;;;;;;4398185;32;67705;-63
2023/01/20 11:51:20;;;;;;;4.97;2.40;;;;;;;;;;4398304;32;71663;-63
2023/01/20 11:54:08;;;;;;;4.72;2.50;;;;;;;;;;4398244;32;65249;-63
2023/01/20 11:57:03;;;;;;;5.18;2.85;;;;;;;;;;4386230;32;67552;-65
2023/01/20 11:59:50;;;;;;;6.45;3.00;;;;;;;;;;4397977;32;60263;-62
2023/01/20 12:02:37;;;;;;;5.53;2.80;;;;;;;;;;4397787;32;70341;-63
2023/01/20 12:05:32;;;;;;;4.20;2.60;;;;;;;;;;4397537;32;69534;-62
2023/01/20 12:08:30;;;;;;;4.57;2.62;;;;;;;;;;4397607;32;66627;-62
2023/01/20 12:11:24;;;;;;;3.78;2.60;;;;;;;;;;4398302;32;60468;-63
2023/01/20 12:14:18;;;;;;;4.43;2.90;;;;;;;;;;4387218;32;69513;-63
2023/01/20 12:17:16;;;;;;;4.22;2.20;;;;;;;;;;4399057;32;70363;-63
2023/01/20 12:20:17;;;;;;;6.22;2.58;;;;;;;;;;4390794;32;67863;-63
2023/01/20 12:23:19;;;;;;;4.62;2.67;;;;;;;;;;4402919;32;70953;-62
2023/01/20 12:26:07;;;;;;;7.28;2.75;;;;;;;;;;4400874;32;65666;-62
2023/01/20 12:28:54;;;;;;;4.15;2.60;;;;;;;;;;4388214;32;66958;-63
2023/01/20 12:31:42;;;;;;;3.78;2.47;;;;;;;;;;4398045;32;60031;-63
2023/01/20 12:34:29;;;;;;;3.97;2.58;;;;;;;;;;4375247;32;71346;-63
2023/01/20 12:37:27;;;;;;;4.85;2.62;;;;;;;;;;4386995;32;65924;-62
2023/01/20 12:40:32;;;;;;;4.78;2.58;;;;;;;;;;4397747;32;67392;-64
2023/01/20 12:43:42;;;;;;;6.30;2.90;;;;;;;;;;4398863;32;59391;-62
2023/01/20 12:46:37;;;;;;;4.25;2.60;;;;;;;;;;4381745;32;68487;-62
2023/01/20 12:49:47;;;;;;;4.35;2.33;;;;;;;;;;4397067;32;69551;-62
2023/01/20 12:52:37;;;;;;;4.70;2.60;;;;;;;;;;4386641;32;67634;-62
2023/01/20 12:55:36;;;;;;;5.57;2.87;;;;;;;;;;4397218;32;71956;-62
2023/01/20 12:58:47;;;;;;;4.65;2.60;;;;;;;;;;4399588;32;65899;-62
2023/01/20 13:02:09;;;;;;;5.68;2.95;;;;;;;;;;4386615;32;67989;-63
2023/01/20 13:05:07;;;;;;;4.43;2.60;;;;;;;;;;4364020;32;67518;-62
2023/01/20 13:08:35;;;;;;;3.40;2.53;;;;;;;;;;4386305;32;71357;-63
2023/01/20 13:11:46;;;;;;;6.97;2.62;;;;;;;;;;4373146;32;64277;-62
2023/01/20 13:14:48;;;;;;;5.43;2.60;;;;;;;;;;4375157;32;70104;-62
2023/01/20 13:17:58;;;;;;;4.10;2.72;;;;;;;;;;4377002;32;60966;-62
2023/01/20 13:20:46;;;;;;;5.03;2.30;;;;;;;;;;4396758;32;69270;-63
2023/01/20 13:23:34;;;;;;;6.07;2.65;;;;;;;;;;4396957;32;69611;-63
2023/01/20 13:26:21;;;;;;;4.70;2.30;;;;;;;;;;4397726;32;66851;-62
2023/01/20 13:29:40;;;;;;;4.97;1.92;;;;;;;;;;4375067;32;71316;-62
2023/01/20 13:32:47;;;;;;;;;;;;;;;;;;4397132;32;70397;-62
2023/01/20 13:35:42;;;;;;;3.97;2.53;;;;;;;;;;4396584;32;68548;-63
2023/01/20 13:38:31;;;;;;;3.35;2.42;;;;;;;;;;4396522;32;68003;-62
2023/01/20 13:41:48;;;;;;;3.00;2.20;;;;;;;;;;4396491;32;71707;-63
2023/01/20 13:44:36;;;;;;;5.82;2.65;;;;;;;;;;4386243;32;65155;-62
2023/01/20 13:47:56;;;;;;;4.22;2.28;;;;;;;;;;4385540;32;67272;-63
2023/01/20 13:50:46;;;;;;;4.47;2.53;;;;;;;;;;4379825;32;59021;-62
2023/01/20 13:53:32;;;;;;;4.20;2.47;;;;;;;;;;4388213;32;70181;-62
2023/01/20 13:56:31;;;;;;;4.12;2.50;;;;;;;;;;4386408;32;68852;-62
2023/01/20 13:59:18;;;;;;;3.85;2.50;;;;;;;;;;4385440;32;67365;-64
2023/01/20 14:02:33;;;;;;;3.10;1.98;;;;;;;;;;4375172;32;57967;-62
2023/01/20 14:05:30;;;;;;;5.18;2.35;;;;;;;;;;4386077;32;70112;-63
2023/01/20 14:08:18;;;;;;;6.32;3.17;;;;;;;;;;4396865;32;68439;-64
2023/01/20 14:11:18;;;;;;;5.55;2.53;;;;;;;;;;4385847;32;66611;-62
2023/01/20 14:14:05;;;;;;;3.22;2.17;;;;;;;;;;4385919;32;71905;-64
2023/01/20 14:16:51;;;;;;;3.47;2.08;;;;;;;;;;4387013;32;66929;-62
2023/01/20 14:19:38;;;;;;;3.53;2.22;;;;;;;;;;4366563;32;68855;-61
2023/01/20 14:22:28;;;;;;;4.60;2.50;;;;;;;;;;4377833;32;60990;-63
2023/01/20 14:25:24;;;;;;;3.85;2.12;;;;;;;;;;4378011;32;70744;-63
2023/01/20 14:28:20;;;;;;;3.37;2.05;;;;;;;;;;4377553;32;67705;-62
2023/01/20 14:31:13;;;;;;;4.37;2.30;;;;;;;;;;4399066;32;66891;-62
2023/01/20 14:34:03;;;;;;;4.90;2.20;;;;;;;;;;4366461;32;59928;-62
2023/01/20 14:36:50;;;;;;;4.18;2.70;;;;;;;;;;4399693;32;69729;-63
2023/01/20 14:39:38;;;;;;;6.35;2.70;;;;;;;;;;4377230;32;67378;-63
2023/01/20 14:42:26;;;;;;;4.97;2.33;;;;;;;;;;4387762;32;66336;-63
2023/01/20 14:45:21;;;;;;;5.05;2.35;;;;;;;;;;4378022;32;70785;-63
2023/01/20 14:48:10;;;;;;;5.05;2.30;;;;;;;;;;4388715;32;69883;-63
2023/01/20 14:51:01;;;;;;;5.68;2.40;;;;;;;;;;4388775;32;69542;-62
2023/01/20 14:54:07;;;;;;;4.12;2.08;;;;;;;;;;4388567;32;66791;-63
2023/01/20 14:56:54;;;;;;;5.47;2.40;;;;;;;;;;4398826;32;70771;-62
2023/01/20 14:59:41;;;;;;;4.53;2.37;;;;;;;;;;4399188;32;64989;-63
2023/01/20 15:02:34;;;;;;;4.50;1.65;;;;;;;;;;4398983;32;67095;-63
2023/01/20 15:05:21;;;;;;;3.47;2.20;;;;;;;;;;4377622;32;61012;-62
2023/01/20 15:08:23;;;;;;;3.15;1.98;;;;;;;;;;4378146;32;69117;-63
2023/01/20 15:14:01;;;;;;;3.70;2.35;;;;;;;;;;3822733;37;43115;-62
2023/01/20 15:16:50;;;;;;;5.22;2.03;;;;;;;;;;4396523;32;60111;-62
2023/01/20 15:19:37;;;;;;;3.47;1.98;;;;;;;;;;4381776;32;69452;-63
2023/01/20 15:22:26;;;;;;;3.83;2.28;;;;;;;;;;4350139;32;69369;-63
2023/01/20 15:25:12;;;;;;;3.97;2.03;;;;;;;;;;4351384;32;68139;-63
2023/01/20 15:27:59;;;;;;;3.80;2.50;;;;;;;;;;4376135;32;71127;-61
2023/01/20 15:30:46;;;;;;;5.12;2.53;;;;;;;;;;4385081;32;65876;-63
2023/01/20 15:33:33;;;;;;;5.55;2.55;;;;;;;;;;4371224;32;67608;-63
2023/01/20 15:36:27;;;;;;;8.38;2.72;;;;;;;;;;4374228;32;60011;-63
2023/01/20 15:39:15;;;;;;;3.72;2.25;;;;;;;;;;4373879;32;71671;-62
2023/01/20 15:42:02;;;;;;;7.30;3.30;;;;;;;;;;4373695;32;65331;-62
2023/01/20 15:44:48;;;;;;;5.78;3.15;;;;;;;;;;4376625;32;66839;-62
2023/01/20 15:47:35;;;;;;;4.55;2.60;;;;;;;;;;4401670;32;60274;-65
2023/01/20 15:50:23;;;;;;;5.47;3.20;;;;;;;;;;4405524;32;70949;-62
2023/01/20 15:53:10;;;;;;;5.37;3.03;;;;;;;;;;4372481;32;68870;-63
2023/01/20 15:55:58;;;;;;;4.35;2.78;;;;;;;;;;4383558;32;67768;-63
2023/01/20 15:58:44;;;;;;;4.87;2.35;;;;;;;;;;4382659;32;70791;-63
2023/01/20 16:01:32;;;;;;;4.93;2.40;;;;;;;;;;4405951;32;66342;-65
2023/01/20 16:04:20;;;;;;;5.18;2.72;;;;;;;;;;4382422;32;68552;-65
2023/01/20 16:07:13;;;;;;;4.50;2.70;;;;;;;;;;4393658;32;67678;-61
2023/01/20 16:10:00;;;;;;;5.47;2.70;;;;;;;;;;4382206;32;70996;-62
2023/01/20 16:12:47;;;;;;;;;;;;;;;;;;4378591;32;66631;-62
2023/01/20 16:15:34;;;;;;;5.93;3.00;;;;;;;;;;4377092;32;66807;-62
2023/01/20 16:18:20;;;;;;;4.65;2.80;;;;;;;;;;4364647;32;60551;-65
2023/01/20 16:21:12;;;;;;;5.87;2.65;;;;;;;;;;4366159;32;71093;-62
2023/01/20 16:23:58;;;;;;;5.25;2.60;;;;;;;;;;4389339;32;69770;-62
2023/01/20 16:26:45;;;;;;;;;;;;;;;;;;4368861;32;67775;-63
2023/01/20 16:29:31;;;;;;;4.80;2.75;;;;;;;;;;4370935;32;58921;-62
2023/01/20 16:32:19;;;;;;;5.53;3.15;;;;;;;;;;4378603;32;69663;-62
2023/01/20 16:35:06;;;;;;;5.45;2.85;;;;;;;;;;4385028;32;69185;-62
2023/01/20 16:37:53;;;;;;;5.87;2.72;;;;;;;;;;4385115;32;66756;-62
2023/01/20 16:40:45;;;;;;;5.00;2.95;;;;;;;;;;4350358;32;72318;-64
2023/01/20 16:43:32;;;;;;;3.95;2.45;;;;;;;;;;4373557;32;65923;-63
2023/01/20 16:46:23;;;;;;;4.60;2.87;;;;;;;;;;4384746;32;67877;-62
2023/01/20 16:49:10;;;;;;;4.53;2.90;;;;;;;;;;4359612;32;59722;-63
2023/01/20 16:51:57;;;;;;;4.70;2.60;;;;;;;;;;4351669;32;69509;-63
2023/01/20 16:54:43;;;;;;;5.53;2.78;;;;;;;;;;4349028;32;66628;-62
2023/01/20 16:57:30;;;;;;;4.43;2.50;;;;;;;;;;4372869;32;67438;-63
2023/01/20 17:00:17;;;;;;;4.82;2.50;;;;;;;;;;4370196;32;60887;-63
2023/01/20 17:03:04;;;;;;;5.05;2.67;;;;;;;;;;4348910;32;71788;-62
2023/01/20 17:05:51;;;;;;;5.20;2.67;;;;;;;;;;4362153;32;68065;-62
2023/01/20 17:08:38;;;;;;;5.57;2.53;;;;;;;;;;4362079;32;66815;-62
2023/01/20 17:11:33;;;;;;;6.47;2.40;;;;;;;;;;4372128;32;70510;-63
2023/01/20 17:14:19;;;;;;;4.65;2.37;;;;;;;;;;4348872;32;63367;-62
2023/01/20 17:17:06;;;;;;;4.15;2.60;;;;;;;;;;4359260;32;68015;-64
2023/01/20 17:19:53;;;;;;;7.10;2.70;;;;;;;;;;4383999;32;67926;-63
2023/01/20 17:22:40;;;;;;;3.95;2.15;;;;;;;;;;4361687;32;71682;-63